Volcan De Tindaya — ECCK — position and weather

sailwx.info

Track history (hours):
 
Tides and Currents Weather Stations Pressure Air Temp Water Temp Dewpoint Dewpoint Depression Visibility Wind Speed Wind Dir Waves Ship Positions

Volcan De Tindaya

Last reported at 2018-Jun-24 10:23 UTC. Time now 2018-Jun-24 10:51 UTC.
Position N 28°48' W 013°51'.

Length 78 m; draft 3.5 m.

Type: Passenger vessel. MMSI: 224127000.

Date/timePositionNaut miles runAvg speedWind from/ knotsBaromVisibWave heightAir tempDewpointWater temp
2018-Jun-24 10:23N 28°48' W 013°51'3 1.4
2018-Jun-24 08:11N 28°51' W 013°50'4 2.2
2018-Jun-24 06:22N 28°47' W 013°51'1 0.1
2018-Jun-23 18:21N 28°48' W 013°50'4 5.7
2018-Jun-23 17:38N 28°52' W 013°50'412.8
2018-Jun-23 17:20N 28°48' W 013°50'2 2.7
2018-Jun-23 16:32N 28°46' W 013°51'015.3
2018-Jun-23 16:30N 28°46' W 013°51'4 1.2
2018-Jun-23 13:32N 28°49' W 013°50'015.1
2018-Jun-23 13:31N 28°49' W 013°50'2 0.3
2018-Jun-23 06:20N 28°47' W 013°51'1 0.1
2018-Jun-22 18:43N 28°46' W 013°51'415.6
2018-Jun-22 18:28N 28°49' W 013°50'2 3.2
2018-Jun-22 17:54N 28°51' W 013°50'5 4.2
2018-Jun-22 16:43N 28°46' W 013°51'1 0.4
2018-Jun-22 14:33N 28°47' W 013°51'115.6
2018-Jun-22 14:30N 28°48' W 013°51'2 1.2
2018-Jun-22 12:45N 28°46' W 013°51'515.4
2018-Jun-22 12:25N 28°51' W 013°50'4 2.0
2018-Jun-22 10:32N 28°47' W 013°51'115.5
2018-Jun-22 10:27N 28°48' W 013°50'0 0.4
2018-Jun-22 09:30N 28°49' W 013°50'1 1.3
2018-Jun-22 08:34N 28°47' W 013°51'115.2
2018-Jun-22 08:30N 28°48' W 013°50'0 0.2
2018-Jun-22 06:18N 28°48' W 013°50'1 0.1
2018-Jun-21 19:28N 28°49' W 013°50'2 1.9
2018-Jun-21 18:22N 28°47' W 013°51'0 0.2
2018-Jun-21 16:30N 28°47' W 013°51'1 0.5
2018-Jun-21 14:39N 28°46' W 013°51'315.6
2018-Jun-21 14:29N 28°49' W 013°50'1 1.2
2018-Jun-21 13:39N 28°48' W 013°50'1 0.8
2018-Jun-21 12:41N 28°47' W 013°51'1 0.6
2018-Jun-21 10:34N 28°46' W 013°51'415.5
2018-Jun-21 10:18N 28°50' W 013°50'5 2.9
2018-Jun-21 08:41N 28°45' W 013°51'315.3
2018-Jun-21 08:30N 28°48' W 013°51'4 6.0
2018-Jun-21 07:53N 28°52' W 013°50'6 4.1
2018-Jun-21 06:27N 28°46' W 013°51'0 0.0
2018-Jun-20 18:26N 28°45' W 013°51'0 0.1
2018-Jun-20 16:32N 28°45' W 013°51'115.6
2018-Jun-20 16:27N 28°46' W 013°51'5 6.4
2018-Jun-20 15:40N 28°51' W 013°50'214.5
2018-Jun-20 15:30N 28°49' W 013°50'2 2.2
2018-Jun-20 14:25N 28°47' W 013°51'2 1.4
2018-Jun-20 12:42N 28°44' W 013°52'211.9
2018-Jun-20 12:30N 28°47' W 013°51'0 0.0
2018-Jun-20 10:29N 28°47' W 013°51'5 6.3
2018-Jun-20 09:40N 28°52' W 013°50'5 3.8
2018-Jun-20 08:22N 28°47' W 013°51'1 0.6
2018-Jun-20 06:27N 28°46' W 013°51'6 1.9
2018-Jun-20 03:17N 28°52' W 013°50'0 0.0
2018-Jun-19 20:41N 28°52' W 013°50'2 1.8
2018-Jun-19 19:25N 28°49' W 013°50'5 6.0
2018-Jun-19 18:34N 28°44' W 013°52'211.2
2018-Jun-19 18:24N 28°46' W 013°51'5 6.5
2018-Jun-19 17:35N 28°51' W 013°50'5 4.0
2018-Jun-19 16:26N 28°47' W 013°51'4 5.7
2018-Jun-19 15:40N 28°51' W 013°50'213.9
2018-Jun-19 15:30N 28°49' W 013°50'4 4.5
2018-Jun-19 14:35N 28°45' W 013°51'415.5
2018-Jun-19 14:19N 28°49' W 013°50'2 3.2
2018-Jun-19 13:40N 28°51' W 013°50'214.9
2018-Jun-19 13:30N 28°49' W 013°50'2 1.8
2018-Jun-19 12:34N 28°47' W 013°51'115.4
2018-Jun-19 12:31N 28°48' W 013°50'3 1.3
2018-Jun-19 10:14N 28°51' W 013°50'4 3.9
2018-Jun-19 09:18N 28°47' W 013°50'1 1.2
2018-Jun-19 08:17N 28°48' W 013°51'1 0.3
2018-Jun-19 06:15N 28°49' W 013°50'2 0.2
2018-Jun-18 18:20N 28°47' W 013°51'2 0.5
2018-Jun-18 14:15N 28°49' W 013°50'3 0.8
2018-Jun-18 10:27N 28°46' W 013°51'2 0.1
2018-Jun-17 10:37N 28°44' W 013°52'2 8.7
2018-Jun-17 10:26N 28°46' W 013°51'2 2.3
2018-Jun-17 09:23N 28°48' W 013°50'3 3.4
2018-Jun-17 08:32N 28°45' W 013°51'115.4
2018-Jun-17 08:28N 28°46' W 013°51'5 6.1
2018-Jun-17 07:36N 28°52' W 013°50'111.0
2018-Jun-17 07:30N 28°50' W 013°50'6 6.6
2018-Jun-17 06:33N 28°44' W 013°52'1 8.9
2018-Jun-17 06:29N 28°45' W 013°51'7 1.0
2018-Jun-16 23:29N 28°52' W 013°50'0 0.0
2018-Jun-16 22:55N 28°52' W 013°50'0 0.0
2018-Jun-16 22:26N 28°52' W 013°50'0 0.0
2018-Jun-16 21:44N 28°52' W 013°50'0 0.0
2018-Jun-16 21:16N 28°52' W 013°50'0 0.0
2018-Jun-16 20:59N 28°52' W 013°50'0 0.0
2018-Jun-16 20:12N 28°52' W 013°50'0 0.6
2018-Jun-16 19:38N 28°51' W 013°50'214.8
2018-Jun-16 19:30N 28°49' W 013°50'5 5.5
2018-Jun-16 18:38N 28°45' W 013°51'215.2
2018-Jun-16 18:30N 28°47' W 013°51'5 8.7
2018-Jun-16 17:55N 28°52' W 013°50'2 5.1
2018-Jun-16 17:30N 28°50' W 013°49'5 6.0
2018-Jun-16 16:36N 28°44' W 013°52'1 9.6
2018-Jun-16 16:27N 28°46' W 013°51'6 7.4
2018-Jun-16 15:39N 28°52' W 013°50'6 5.4
2018-Jun-16 14:32N 28°46' W 013°51'115.4
2018-Jun-16 14:29N 28°46' W 013°51'2 0.5
2018-Jun-16 10:38N 28°48' W 013°50'215.4
2018-Jun-16 10:30N 28°50' W 013°50'3 1.2
2018-Jun-16 08:25N 28°48' W 013°51'3 1.1
2018-Jun-16 06:09N 28°50' W 013°50'1 0.1
2018-Jun-15 19:40N 28°51' W 013°50'3 2.3
2018-Jun-15 18:29N 28°49' W 013°50'2 2.5
2018-Jun-15 17:49N 28°50' W 013°50'4 3.4
2018-Jun-15 16:45N 28°47' W 013°51'415.4
2018-Jun-15 16:30N 28°50' W 013°50'1 1.7
2018-Jun-15 15:52N 28°51' W 013°50'6 4.7
2018-Jun-15 14:40N 28°46' W 013°51'215.5
2018-Jun-15 14:30N 28°48' W 013°51'3 4.2
2018-Jun-15 13:47N 28°51' W 013°50'0 0.2
2018-Jun-15 11:50N 28°51' W 013°50'1 0.5
2018-Jun-15 10:07N 28°51' W 013°50'0 0.8
2018-Jun-15 09:41N 28°51' W 013°50'0 0.2
2018-Jun-15 07:42N 28°51' W 013°50'2 9.1
2018-Jun-15 07:30N 28°50' W 013°50'3 3.0
2018-Jun-15 06:23N 28°46' W 013°51'5 0.4
2018-Jun-14 17:34N 28°51' W 013°50'4 2.8
2018-Jun-14 16:17N 28°48' W 013°51'4 5.9
2018-Jun-14 15:37N 28°52' W 013°50'6 5.8
2018-Jun-14 14:31N 28°45' W 013°51'215.1
2018-Jun-14 14:24N 28°47' W 013°51'3 1.7
2018-Jun-14 12:42N 28°44' W 013°52'211.5
2018-Jun-14 12:30N 28°47' W 013°51'5 7.9
2018-Jun-14 11:52N 28°52' W 013°50'7 6.7
2018-Jun-14 10:46N 28°44' W 013°52'412.5
2018-Jun-14 10:25N 28°49' W 013°50'  
Track history (hours):
 
Tides and Currents Weather Stations Pressure Air Temp Water Temp Dewpoint Dewpoint Depression Visibility Wind Speed Wind Dir Waves Ship Positions

Volcan De Tindaya

Last reported at 2018-Jun-24 10:23 UTC. Time now 2018-Jun-24 10:51 UTC.
Position N 28°48' W 013°51'.

Length 78 m; draft 3.5 m.

Type: Passenger vessel. MMSI: 224127000.

Date/timePositionNaut miles runAvg speedWind from/ knotsBaromVisibWave heightAir tempDewpointWater temp
2018-Jun-24 10:23N 28°48' W 013°51'3 1.4
2018-Jun-24 08:11N 28°51' W 013°50'4 2.2
2018-Jun-24 06:22N 28°47' W 013°51'1 0.1
2018-Jun-23 18:21N 28°48' W 013°50'4 5.7
2018-Jun-23 17:38N 28°52' W 013°50'412.8
2018-Jun-23 17:20N 28°48' W 013°50'2 2.7
2018-Jun-23 16:32N 28°46' W 013°51'015.3
2018-Jun-23 16:30N 28°46' W 013°51'4 1.2
2018-Jun-23 13:32N 28°49' W 013°50'015.1
2018-Jun-23 13:31N 28°49' W 013°50'2 0.3
2018-Jun-23 06:20N 28°47' W 013°51'1 0.1
2018-Jun-22 18:43N 28°46' W 013°51'415.6
2018-Jun-22 18:28N 28°49' W 013°50'2 3.2
2018-Jun-22 17:54N 28°51' W 013°50'5 4.2
2018-Jun-22 16:43N 28°46' W 013°51'1 0.4
2018-Jun-22 14:33N 28°47' W 013°51'115.6
2018-Jun-22 14:30N 28°48' W 013°51'2 1.2
2018-Jun-22 12:45N 28°46' W 013°51'515.4
2018-Jun-22 12:25N 28°51' W 013°50'4 2.0
2018-Jun-22 10:32N 28°47' W 013°51'115.5
2018-Jun-22 10:27N 28°48' W 013°50'0 0.4
2018-Jun-22 09:30N 28°49' W 013°50'1 1.3
2018-Jun-22 08:34N 28°47' W 013°51'115.2
2018-Jun-22 08:30N 28°48' W 013°50'0 0.2
2018-Jun-22 06:18N 28°48' W 013°50'1 0.1
2018-Jun-21 19:28N 28°49' W 013°50'2 1.9
2018-Jun-21 18:22N 28°47' W 013°51'0 0.2
2018-Jun-21 16:30N 28°47' W 013°51'1 0.5
2018-Jun-21 14:39N 28°46' W 013°51'315.6
2018-Jun-21 14:29N 28°49' W 013°50'1 1.2
2018-Jun-21 13:39N 28°48' W 013°50'1 0.8
2018-Jun-21 12:41N 28°47' W 013°51'1 0.6
2018-Jun-21 10:34N 28°46' W 013°51'415.5
2018-Jun-21 10:18N 28°50' W 013°50'5 2.9
2018-Jun-21 08:41N 28°45' W 013°51'315.3
2018-Jun-21 08:30N 28°48' W 013°51'4 6.0
2018-Jun-21 07:53N 28°52' W 013°50'6 4.1
2018-Jun-21 06:27N 28°46' W 013°51'0 0.0
2018-Jun-20 18:26N 28°45' W 013°51'0 0.1
2018-Jun-20 16:32N 28°45' W 013°51'115.6
2018-Jun-20 16:27N 28°46' W 013°51'5 6.4
2018-Jun-20 15:40N 28°51' W 013°50'214.5
2018-Jun-20 15:30N 28°49' W 013°50'2 2.2
2018-Jun-20 14:25N 28°47' W 013°51'2 1.4
2018-Jun-20 12:42N 28°44' W 013°52'211.9
2018-Jun-20 12:30N 28°47' W 013°51'0 0.0
2018-Jun-20 10:29N 28°47' W 013°51'5 6.3
2018-Jun-20 09:40N 28°52' W 013°50'5 3.8
2018-Jun-20 08:22N 28°47' W 013°51'1 0.6
2018-Jun-20 06:27N 28°46' W 013°51'6 1.9
2018-Jun-20 03:17N 28°52' W 013°50'0 0.0
2018-Jun-19 20:41N 28°52' W 013°50'2 1.8
2018-Jun-19 19:25N 28°49' W 013°50'5 6.0
2018-Jun-19 18:34N 28°44' W 013°52'211.2
2018-Jun-19 18:24N 28°46' W 013°51'5 6.5
2018-Jun-19 17:35N 28°51' W 013°50'5 4.0
2018-Jun-19 16:26N 28°47' W 013°51'4 5.7
2018-Jun-19 15:40N 28°51' W 013°50'213.9
2018-Jun-19 15:30N 28°49' W 013°50'4 4.5
2018-Jun-19 14:35N 28°45' W 013°51'415.5
2018-Jun-19 14:19N 28°49' W 013°50'2 3.2
2018-Jun-19 13:40N 28°51' W 013°50'214.9
2018-Jun-19 13:30N 28°49' W 013°50'2 1.8
2018-Jun-19 12:34N 28°47' W 013°51'115.4
2018-Jun-19 12:31N 28°48' W 013°50'3 1.3
2018-Jun-19 10:14N 28°51' W 013°50'4 3.9
2018-Jun-19 09:18N 28°47' W 013°50'1 1.2
2018-Jun-19 08:17N 28°48' W 013°51'1 0.3
2018-Jun-19 06:15N 28°49' W 013°50'2 0.2
2018-Jun-18 18:20N 28°47' W 013°51'2 0.5
2018-Jun-18 14:15N 28°49' W 013°50'3 0.8
2018-Jun-18 10:27N 28°46' W 013°51'2 0.1
2018-Jun-17 10:37N 28°44' W 013°52'2 8.7
2018-Jun-17 10:26N 28°46' W 013°51'2 2.3
2018-Jun-17 09:23N 28°48' W 013°50'3 3.4
2018-Jun-17 08:32N 28°45' W 013°51'115.4
2018-Jun-17 08:28N 28°46' W 013°51'5 6.1
2018-Jun-17 07:36N 28°52' W 013°50'111.0
2018-Jun-17 07:30N 28°50' W 013°50'6 6.6
2018-Jun-17 06:33N 28°44' W 013°52'1 8.9
2018-Jun-17 06:29N 28°45' W 013°51'7 1.0
2018-Jun-16 23:29N 28°52' W 013°50'0 0.0
2018-Jun-16 22:55N 28°52' W 013°50'0 0.0
2018-Jun-16 22:26N 28°52' W 013°50'0 0.0
2018-Jun-16 21:44N 28°52' W 013°50'0 0.0
2018-Jun-16 21:16N 28°52' W 013°50'0 0.0
2018-Jun-16 20:59N 28°52' W 013°50'0 0.0
2018-Jun-16 20:12N 28°52' W 013°50'0 0.6
2018-Jun-16 19:38N 28°51' W 013°50'214.8
2018-Jun-16 19:30N 28°49' W 013°50'5 5.5
2018-Jun-16 18:38N 28°45' W 013°51'215.2
2018-Jun-16 18:30N 28°47' W 013°51'5 8.7
2018-Jun-16 17:55N 28°52' W 013°50'2 5.1
2018-Jun-16 17:30N 28°50' W 013°49'5 6.0
2018-Jun-16 16:36N 28°44' W 013°52'1 9.6
2018-Jun-16 16:27N 28°46' W 013°51'6 7.4
2018-Jun-16 15:39N 28°52' W 013°50'6 5.4
2018-Jun-16 14:32N 28°46' W 013°51'115.4
2018-Jun-16 14:29N 28°46' W 013°51'2 0.5
2018-Jun-16 10:38N 28°48' W 013°50'215.4
2018-Jun-16 10:30N 28°50' W 013°50'3 1.2
2018-Jun-16 08:25N 28°48' W 013°51'3 1.1
2018-Jun-16 06:09N 28°50' W 013°50'1 0.1
2018-Jun-15 19:40N 28°51' W 013°50'3 2.3
2018-Jun-15 18:29N 28°49' W 013°50'2 2.5
2018-Jun-15 17:49N 28°50' W 013°50'4 3.4
2018-Jun-15 16:45N 28°47' W 013°51'415.4
2018-Jun-15 16:30N 28°50' W 013°50'1 1.7
2018-Jun-15 15:52N 28°51' W 013°50'6 4.7
2018-Jun-15 14:40N 28°46' W 013°51'215.5
2018-Jun-15 14:30N 28°48' W 013°51'3 4.2
2018-Jun-15 13:47N 28°51' W 013°50'0 0.2
2018-Jun-15 11:50N 28°51' W 013°50'1 0.5
2018-Jun-15 10:07N 28°51' W 013°50'0 0.8
2018-Jun-15 09:41N 28°51' W 013°50'0 0.2
2018-Jun-15 07:42N 28°51' W 013°50'2 9.1
2018-Jun-15 07:30N 28°50' W 013°50'3 3.0
2018-Jun-15 06:23N 28°46' W 013°51'5 0.4
2018-Jun-14 17:34N 28°51' W 013°50'4 2.8
2018-Jun-14 16:17N 28°48' W 013°51'4 5.9
2018-Jun-14 15:37N 28°52' W 013°50'6 5.8
2018-Jun-14 14:31N 28°45' W 013°51'215.1
2018-Jun-14 14:24N 28°47' W 013°51'3 1.7
2018-Jun-14 12:42N 28°44' W 013°52'211.5
2018-Jun-14 12:30N 28°47' W 013°51'5 7.9
2018-Jun-14 11:52N 28°52' W 013°50'7 6.7
2018-Jun-14 10:46N 28°44' W 013°52'412.5
2018-Jun-14 10:25N 28°49' W 013°50'  

Dump ship's entire track history